Last 30 Days

Top Stn/Summit - 11,053ft

Hourly Data | America/Los_Angeles
as of 7/14/24 3:20 PM PDT
Date & Time Temp (°F) WindChill (°F) RH (%) Dew Pt (°F) Wet Bulb (°F) Wind Spd (mph) Wind Dir (°) Wind Gust (mph) Wind Gst Dir (°) Daily Min Temp (°F) Daily Max Temp (°F) Daily Max Wind (mph)
7/14/24 - 1500 58.7 - 51 40.5 49.5 18.8 S | 182 36.0 S | 191 43.8 59.6 51.2
7/14/24 - 1400 57.0 - 56 41.4 49.2 18.4 S | 178 32.7 S | 179 43.8 58.4 51.2
7/14/24 - 1300 54.5 - 60 40.9 47.9 14.1 S | 177 27.0 S | 186 43.8 55.8 51.2
7/14/24 - 1200 51.9 - 67 41.2 46.8 17.7 S | 180 28.5 S | 179 43.8 53.1 51.2
7/14/24 - 1100 46.4 39.1 76 39.1 43.2 18.6 S | 189 24.7 S | 191 43.8 51.6 51.2
7/14/24 - 1000 46.8 37.2 83 41.8 44.7 33.5 S | 183 51.2 S | 170 43.8 51.6 51.2
7/14/24 - 0900 48.3 40.4 82 42.9 46.1 26.1 S | 182 43.6 S | 179 46.7 51.6 43.6
7/14/24 - 0800 49.2 41.8 75 41.6 45.8 24.1 S | 184 31.1 S | 191 47.0 51.6 31.1
7/14/24 - 0700 48.0 40.2 74 40.1 44.5 24.3 S | 182 28.8 S | 178 47.0 51.6 28.8
7/14/24 - 0600 47.5 40.0 75 40.1 44.2 21.8 S | 184 25.6 S | 185 47.0 51.6 25.6
7/14/24 - 0500 47.9 40.7 70 38.5 43.7 20.5 S | 189 22.8 S | 187 47.4 51.6 22.8
7/14/24 - 0400 49.6 44.2 59 36.0 43.4 14.5 SSW | 206 18.1 SSW | 197 48.4 51.6 18.1
7/14/24 - 0300 50.3 - 57 35.9 43.8 4.8 WSW | 241 13.3 SW | 220 49.1 51.6 13.3
7/14/24 - 0200 50.6 - 59 36.8 44.3 6.0 NW | 311 11.6 NW | 324 49.1 51.6 11.6
7/14/24 - 0100 49.2 44.1 65 38.1 44.2 13.4 NNW | 329 19.2 NNW | 328 46.5 64.0 59.2
7/14/24 - 0000 48.4 41.5 71 39.5 44.4 20.0 NW | 324 23.3 NNW | 327 46.5 64.0 59.2
7/13/24 - 2300 48.9 42.8 70 39.7 44.7 16.9 NNW | 328 20.4 NW | 319 46.5 64.0 59.2
7/13/24 - 2200 47.4 41.1 84 42.8 45.6 15.9 NW | 321 24.8 NNW | 340 46.5 64.0 59.2
7/13/24 - 2100 50.9 - 66 39.9 45.8 14.2 WNW | 301 29.0 NW | 324 46.8 64.0 59.2
7/13/24 - 2000 52.9 - 53 36.1 45.0 18.4 S | 191 21.4 SSW | 194 46.8 64.0 59.2
7/13/24 - 1900 51.4 - 58 37.0 44.7 22.4 S | 184 27.9 S | 180 46.8 64.0 59.2
7/13/24 - 1800 48.1 38.9 72 39.4 44.2 33.7 SSW | 193 59.2 SSW | 199 46.8 64.0 59.2
7/13/24 - 1700 53.3 - 60 39.6 46.7 34.4 SW | 232 58.2 W | 260 48.2 64.0 58.2
7/13/24 - 1600 62.6 - 36 35.5 49.0 18.1 S | 190 35.4 SSW | 196 54.7 64.0 44.1
7/13/24 - 1500 61.9 - 38 35.8 48.8 11.7 S | 180 30.8 S | 180 54.7 63.9 44.1
7/13/24 - 1400 62.3 - 36 34.7 48.5 8.5 W | 263 23.1 NW | 306 54.7 63.9 44.1
7/13/24 - 1300 60.9 - 36 33.7 47.6 14.0 W | 266 28.3 NNW | 332 54.7 63.9 44.1
7/13/24 - 1200 59.8 - 35 32.4 46.7 17.6 W | 277 44.1 WNW | 287 54.7 61.2 44.1
7/13/24 - 1100 57.6 - 41 33.8 46.2 8.2 SSE | 163 22.5 SSW | 193 54.7 59.8 38.6
7/13/24 - 1000 57.3 - 41 33.7 46.1 18.6 S | 186 27.3 S | 189 54.7 59.5 38.6
7/13/24 - 0900 56.1 - 40 32.2 45.0 20.6 S | 185 33.4 SSW | 194 54.7 59.5 38.6
7/13/24 - 0800 57.2 - 34 29.2 44.5 15.2 S | 191 29.7 SSW | 192 54.7 59.5 38.6
7/13/24 - 0700 57.5 - 32 27.7 44.1 7.4 W | 260 16.2 NW | 326 54.7 59.5 38.6
7/13/24 - 0600 56.2 - 35 28.6 43.8 16.0 NNW | 335 20.7 NNW | 340 54.7 59.5 38.6
7/13/24 - 0500 55.9 - 35 28.7 43.8 21.3 WNW | 293 26.6 N | 349 54.7 59.5 38.6
7/13/24 - 0400 55.6 - 36 29.0 43.7 24.4 WSW | 250 33.7 NNW | 347 54.7 59.5 38.6
7/13/24 - 0300 56.5 - 35 29.2 44.2 28.3 NW | 309 38.6 N | 350 54.8 59.5 38.6
7/13/24 - 0200 58.6 - 32 28.5 44.9 14.9 SSW | 206 30.6 ESE | 106 57.5 59.5 30.6
7/13/24 - 0100 58.5 - 32 29.0 45.0 7.1 ESE | 107 10.1 E | 88 54.6 68.4 41.9
7/13/24 - 0000 58.1 - 33 29.5 45.0 12.7 SSW | 212 21.3 NW | 325 54.6 68.4 41.9
7/12/24 - 2300 57.4 - 41 33.5 46.1 9.3 S | 188 18.3 N | 350 54.6 68.4 41.9
7/12/24 - 2200 56.3 - 58 41.8 49.1 16.0 SSW | 194 22.0 S | 190 54.6 68.4 41.9
7/12/24 - 2100 56.8 - 50 37.5 47.6 24.1 S | 186 33.1 S | 190 54.6 68.4 41.9
7/12/24 - 2000 60.2 - 32 30.6 46.2 18.0 S | 188 24.9 SSW | 194 57.4 68.4 41.9
7/12/24 - 1900 61.4 - 34 32.6 47.4 13.6 S | 188 18.4 S | 186 57.4 68.4 41.9
7/12/24 - 1800 62.6 - 31 31.9 47.6 12.2 S | 178 20.0 S | 190 57.4 68.4 41.9
7/12/24 - 1700 63.0 - 30 31.0 47.5 16.2 S | 190 26.2 S | 190 57.4 68.4 41.9
7/12/24 - 1600 62.2 - 30 30.1 46.9 21.7 WSW | 237 41.9 SW | 235 57.4 68.4 41.9
7/12/24 - 1500 63.2 - 29 30.5 47.4 23.4 SSW | 203 34.8 S | 188 57.4 68.4 39.8
7/12/24 - 1400 65.9 - 23 26.8 47.4 12.8 SW | 234 30.5 S | 179 57.4 68.4 39.8
7/12/24 - 1300 66.8 - 22 26.2 47.5 12.4 SW | 226 39.8 SW | 216 57.4 68.4 39.8
7/12/24 - 1200 65.2 - 23 26.4 47.0 13.1 NW | 307 27.7 NNW | 328 57.4 66.5 33.5
7/12/24 - 1100 64.0 - 27 29.3 47.4 15.7 NW | 319 25.3 NNW | 328 57.4 65.6 33.5
7/12/24 - 1000 62.3 - 29 29.5 46.7 13.4 WNW | 298 22.3 NNW | 338 57.4 63.9 33.5
7/12/24 - 0900 61.2 - 27 26.8 45.5 7.6 NW | 312 12.8 NNW | 327 57.4 62.1 33.5
7/12/24 - 0800 59.7 - 27 25.9 44.6 8.1 NNW | 332 11.5 NNW | 327 57.4 60.5 33.5
7/12/24 - 0700 59.6 - 26 24.5 44.2 8.8 NW | 324 14.0 NNW | 329 57.4 60.5 33.5
7/12/24 - 0600 58.3 - 28 24.9 43.7 9.7 NNW | 329 18.3 NNW | 337 57.4 60.1 33.5
7/12/24 - 0500 58.9 - 26 24.2 43.8 8.9 NNW | 328 12.6 NW | 322 57.6 60.1 33.5
7/12/24 - 0400 59.6 - 24 22.8 43.7 6.3 NW | 316 10.5 NNW | 336 57.6 60.1 33.5
7/12/24 - 0300 58.5 - 28 25.6 44.0 5.3 WSW | 248 14.8 WNW | 303 57.6 60.1 33.5
7/12/24 - 0200 58.4 - 29 26.6 44.2 12.8 SSW | 195 33.5 S | 183 57.6 59.6 33.5
7/12/24 - 0100 57.5 - 36 30.9 45.2 14.6 SSW | 192 18.6 SSW | 192 55.5 68.8 39.4
7/12/24 - 0000 57.0 - 42 34.0 46.0 20.3 S | 190 23.3 S | 186 55.5 68.8 39.4
7/11/24 - 2300 56.6 - 48 36.9 47.0 23.2 S | 188 26.6 S | 189 55.5 68.8 39.4
7/11/24 - 2200 56.0 - 55 39.9 48.1 25.2 S | 189 28.3 S | 187 55.5 68.8 39.4
7/11/24 - 2100 58.5 - 46 37.8 48.2 25.9 S | 186 29.5 S | 189 55.8 68.8 39.4
7/11/24 - 2000 61.2 - 37 34.8 48.2 26.9 S | 186 33.2 S | 190 55.8 68.8 39.4
7/11/24 - 1900 64.8 - 26 29.1 47.6 27.3 S | 180 35.7 S | 181 55.8 68.8 39.4
7/11/24 - 1800 65.6 - 19 22.3 46.1 24.6 S | 181 39.4 S | 191 55.8 68.8 39.4
7/11/24 - 1700 66.2 - 19 22.4 46.3 19.8 S | 177 35.9 S | 187 55.8 68.8 38.8
7/11/24 - 1600 67.3 - 18 22.6 46.8 21.0 S | 182 38.7 S | 182 55.8 68.8 38.8
7/11/24 - 1500 67.4 - 18 22.3 46.8 19.9 S | 182 38.8 SSW | 192 55.8 68.8 38.8
7/11/24 - 1400 67.7 - 17 21.0 46.6 17.8 S | 183 37.0 S | 177 55.8 68.8 37.0
7/11/24 - 1300 67.2 - 17 20.4 46.3 18.9 S | 185 35.4 S | 182 55.8 68.0 35.4
7/11/24 - 1200 66.0 - 17 20.5 45.8 15.8 S | 188 30.5 S | 172 55.8 67.2 32.2
7/11/24 - 1100 64.8 - 19 21.5 45.6 12.7 S | 181 24.8 S | 184 55.8 65.9 32.2
7/11/24 - 1000 63.7 - 19 20.8 45.0 13.0 S | 189 20.5 SSW | 195 55.8 64.8 32.2
7/11/24 - 0900 63.0 - 19 20.1 44.5 13.6 SSW | 205 18.9 NW | 322 55.8 64.6 32.2
7/11/24 - 0800 59.8 - 19 17.4 42.6 15.5 SSW | 212 20.6 SSW | 197 55.8 61.4 32.2
7/11/24 - 0700 57.3 - 17 13.3 40.6 19.3 SSW | 208 24.0 SSW | 208 55.8 59.1 32.2
7/11/24 - 0600 56.1 - 17 12.1 39.8 18.7 SSW | 194 23.7 SSW | 202 55.8 57.2 32.2
7/11/24 - 0500 56.4 - 17 11.9 40.0 23.0 S | 186 28.5 SSW | 206 56.0 57.2 32.2
7/11/24 - 0400 56.6 - 17 12.7 40.2 26.6 S | 186 29.1 S | 182 56.0 57.2 32.2
7/11/24 - 0300 56.3 - 17 12.3 40.0 28.0 S | 187 30.7 S | 187 56.0 56.9 32.2
7/11/24 - 0200 56.4 - 19 14.7 40.4 29.2 S | 190 32.2 S | 189 56.0 56.9 32.2
7/11/24 - 0100 56.4 - 21 17.0 40.9 30.7 S | 191 33.2 S | 191 55.5 67.4 65.8
7/11/24 - 0000 56.8 - 22 18.3 41.4 29.3 S | 187 32.0 SSW | 199 55.5 67.4 65.8
7/10/24 - 2300 57.2 - 23 19.4 41.8 28.1 S | 186 33.2 S | 188 55.5 67.4 65.8
7/10/24 - 2200 57.6 - 22 19.0 41.9 27.8 S | 187 31.6 S | 186 55.5 67.4 65.8
7/10/24 - 2100 59.2 - 19 17.1 42.2 30.4 S | 186 36.1 S | 185 55.5 67.4 65.8
7/10/24 - 2000 62.4 - 19 19.1 44.0 31.0 S | 183 37.5 S | 186 55.5 67.4 65.8
7/10/24 - 1900 64.0 - 19 20.4 45.0 29.0 S | 178 39.5 S | 182 55.5 67.4 65.8
7/10/24 - 1800 65.4 - 18 20.2 45.5 27.4 S | 179 42.5 S | 184 55.5 67.4 65.8
7/10/24 - 1700 66.1 - 17 20.1 45.8 27.6 S | 177 43.2 S | 181 55.5 67.4 65.8
7/10/24 - 1600 66.6 - 17 20.1 46.0 28.2 S | 180 50.8 S | 178 55.5 67.4 65.8
7/10/24 - 1500 66.3 - 16 18.8 45.6 34.9 S | 180 65.8 S | 179 55.5 67.2 65.8
7/10/24 - 1400 66.4 - 16 18.4 45.6 37.0 S | 183 54.7 S | 182 55.5 67.0 54.7
7/10/24 - 1300 66.0 - 15 17.6 45.2 32.8 S | 184 50.7 S | 189 55.5 66.7 50.7
7/10/24 - 1200 65.5 - 15 15.8 44.7 29.5 SSW | 194 48.0 SW | 217 55.5 66.4 48.0
7/10/24 - 1100 64.5 - 16 16.5 44.4 20.1 SSW | 195 35.4 SSW | 199 55.5 65.7 35.4
7/10/24 - 1000 64.6 - 16 17.7 44.7 4.8 SSW | 206 20.7 SSW | 193 55.5 65.7 20.7
7/10/24 - 0900 63.3 - 16 16.6 43.9 9.7 SW | 233 16.8 SW | 219 55.5 65.7 16.8
7/10/24 - 0800 61.2 - 18 17.1 43.1 10.0 SW | 232 16.7 SW | 220 55.5 61.9 16.7
7/10/24 - 0700 58.4 - 24 21.4 42.8 2.5 W | 268 9.5 SW | 234 55.5 60.5 11.3
7/10/24 - 0600 56.8 - 22 18.1 41.4 0.5 W | 272 1.7 WNW | 293 55.5 60.5 11.3
7/10/24 - 0500 56.6 - 25 20.9 41.9 4.7 W | 278 9.6 WNW | 296 56.1 60.5 11.3
7/10/24 - 0400 58.9 - 25 23.4 43.6 6.5 WNW | 297 10.9 NW | 319 56.5 60.5 11.3
7/10/24 - 0300 58.7 - 22 20.3 42.7 3.5 W | 279 7.7 WNW | 302 56.5 60.5 11.3
7/10/24 - 0200 56.7 - 21 17.5 41.2 8.3 SSW | 208 11.3 SSW | 209 56.5 56.9 11.3
7/10/24 - 0100 56.3 - 29 24.0 42.6 13.9 SSW | 204 17.2 SSW | 199 53.3 67.8 49.7
7/10/24 - 0000 57.4 - 36 30.8 45.1 18.5 SSW | 203 22.8 SSW | 201 53.3 67.8 49.7
7/9/24 - 2300 57.0 - 36 30.4 44.8 23.2 SSW | 196 26.3 SSW | 198 53.3 67.8 49.7
7/9/24 - 2200 55.0 - 42 32.1 44.5 26.7 S | 189 30.7 S | 184 53.3 67.8 49.7
7/9/24 - 2100 55.7 - 42 32.9 45.1 31.8 S | 188 38.2 S | 186 53.3 67.8 49.7
7/9/24 - 2000 59.2 - 37 32.6 46.5 35.2 S | 186 42.4 S | 190 53.3 67.8 49.7
7/9/24 - 1900 62.3 - 27 27.7 46.2 33.6 S | 183 42.2 SSW | 192 53.3 67.8 49.7
7/9/24 - 1800 64.6 - 24 26.6 46.8 32.6 S | 182 42.8 S | 186 53.3 67.8 49.7
7/9/24 - 1700 65.7 - 24 28.0 47.6 32.6 S | 182 49.7 SSW | 197 53.3 67.8 49.7
7/9/24 - 1600 66.6 - 23 27.8 47.9 24.9 S | 182 42.4 S | 183 53.3 67.8 42.4
7/9/24 - 1500 66.7 - 21 25.6 47.4 23.1 S | 180 36.0 SSW | 202 53.3 67.8 36.0
7/9/24 - 1400 67.1 - 16 18.9 45.9 20.0 S | 180 35.8 SSE | 168 53.3 67.8 35.8
7/9/24 - 1300 66.5 - 15 17.4 45.4 15.8 S | 182 29.1 S | 174 53.3 67.6 29.1
7/9/24 - 1200 65.9 - 17 20.0 45.7 12.4 SSW | 196 25.3 SSE | 168 53.3 66.9 28.0
7/9/24 - 1100 63.5 - 22 23.8 45.6 3.1 SSW | 195 15.9 SE | 146 53.3 65.4 28.0
7/9/24 - 1000 62.7 - 21 22.7 45.0 3.5 W | 263 8.8 ENE | 73 53.3 65.1 28.0
7/9/24 - 0900 63.0 - 10 6.2 42.1 7.5 WSW | 243 14.3 SW | 229 53.3 65.1 28.0
7/9/24 - 0800 58.8 - 16 11.7 41.1 11.7 SW | 230 14.3 SW | 216 53.3 61.9 28.0
7/9/24 - 0700 58.0 - 17 12.4 40.9 16.2 SW | 219 24.6 SW | 232 53.3 59.3 28.0
7/9/24 - 0600 57.2 - 12 5.5 39.4 22.3 SW | 223 27.4 SW | 222 53.3 58.0 28.0
7/9/24 - 0500 57.0 - 15 10.3 40.0 22.3 SW | 219 27.1 SW | 216 53.3 57.5 28.0
7/9/24 - 0400 55.5 - 29 23.3 42.1 19.3 SSW | 208 24.5 SSW | 213 53.3 56.4 28.0
7/9/24 - 0300 55.2 - 35 28.3 43.3 19.7 SSW | 200 23.9 SSW | 197 53.3 56.2 28.0
7/9/24 - 0200 53.7 - 36 27.2 42.3 24.8 SSW | 196 28.0 SSW | 196 53.3 54.1 28.0
7/9/24 - 0100 54.3 - 35 27.4 42.6 27.1 SSW | 195 29.4 SSW | 195 53.9 68.2 41.7
7/9/24 - 0000 54.6 - 36 28.3 43.0 28.0 SSW | 194 32.1 SSW | 192 54.1 68.2 41.7
7/8/24 - 2300 54.4 - 44 33.0 44.6 32.0 SSW | 192 34.6 S | 188 54.1 68.2 41.7
7/8/24 - 2200 54.7 - 48 35.5 45.6 34.0 S | 191 37.9 S | 190 54.1 68.2 41.7
7/8/24 - 2100 57.4 - 39 32.8 45.8 35.6 S | 187 40.1 S | 186 54.7 68.2 41.7
7/8/24 - 2000 61.6 - 34 33.1 47.7 32.0 S | 181 39.6 S | 174 54.7 68.2 41.7
7/8/24 - 1900 63.9 - 33 34.6 49.1 28.5 S | 180 39.1 S | 185 54.7 68.2 41.7
7/8/24 - 1800 65.2 - 33 35.3 49.8 24.5 S | 178 37.2 S | 180 54.7 68.2 41.7
7/8/24 - 1700 66.2 - 31 34.6 50.0 24.6 S | 180 39.0 S | 180 54.7 68.2 41.7
7/8/24 - 1600 67.3 - 28 33.4 49.9 24.6 S | 180 41.7 S | 176 54.7 68.2 41.7
7/8/24 - 1500 67.4 - 28 32.9 49.8 26.2 S | 181 38.7 S | 191 54.7 68.2 40.7
7/8/24 - 1400 67.4 - 26 31.2 49.2 27.2 S | 186 39.3 S | 191 54.7 68.2 40.7
7/8/24 - 1300 67.3 - 27 32.3 49.6 23.6 SSW | 192 40.7 S | 177 54.7 68.2 40.7
7/8/24 - 1200 66.2 - 26 30.5 48.6 17.2 SSW | 203 33.3 S | 187 54.7 67.2 33.3
7/8/24 - 1100 63.5 - 34 34.6 49.0 6.0 WSW | 256 16.5 NW | 313 54.7 64.2 16.5
7/8/24 - 1000 61.4 - 32 31.4 47.0 7.1 W | 261 15.4 NW | 324 54.7 63.3 15.4
7/8/24 - 0900 61.9 - 30 29.8 46.7 5.1 WSW | 252 13.4 ENE | 75 54.7 63.0 15.0
7/8/24 - 0800 60.6 - 30 29.3 46.0 2.6 SSW | 202 6.8 SSW | 204 54.7 62.7 15.0
7/8/24 - 0700 56.7 - 37 30.5 44.7 8.8 SSW | 203 11.4 SSW | 202 54.7 58.1 15.0
7/8/24 - 0600 54.9 - 41 31.6 44.3 11.4 SSW | 204 12.6 SSW | 203 54.7 57.8 15.0
7/8/24 - 0500 55.0 - 44 33.2 44.9 10.5 SSW | 204 12.2 SSW | 206 54.7 57.8 15.0
7/8/24 - 0400 55.2 - 45 34.0 45.3 11.0 SSW | 201 15.0 SSW | 205 55.0 57.8 15.0
7/8/24 - 0300 56.0 - 43 33.9 45.6 9.3 SSW | 201 11.2 SSW | 199 55.5 57.8 11.2
7/8/24 - 0200 57.3 - 32 27.6 44.1 6.8 SSW | 200 9.3 SSW | 199 56.6 57.8 9.3
7/8/24 - 0100 57.7 - 36 30.6 45.2 7.6 SSW | 199 9.9 SSW | 198 56.9 69.1 39.6
7/8/24 - 0000 57.6 - 43 35.4 46.9 10.2 SSW | 197 13.3 SSW | 199 56.9 69.1 39.6
7/7/24 - 2300 58.4 - 45 37.3 48.0 15.5 SSW | 197 18.8 SSW | 194 56.9 69.1 39.6
7/7/24 - 2200 58.0 - 46 37.3 47.8 22.4 SSW | 195 30.2 SSW | 193 56.9 69.1 39.6
7/7/24 - 2100 58.7 - 45 37.2 48.1 28.7 S | 190 35.4 SSW | 208 56.9 69.1 39.6
7/7/24 - 2000 61.8 - 43 39.1 50.1 29.8 S | 184 36.4 S | 187 56.9 69.1 39.6
7/7/24 - 1900 64.2 - 40 39.2 51.0 29.4 S | 182 37.8 S | 183 56.9 69.1 39.6
7/7/24 - 1800 66.3 - 31 34.9 50.1 29.3 S | 182 37.6 S | 184 56.9 69.1 39.6
7/7/24 - 1700 67.5 - 28 33.4 50.0 27.6 S | 183 39.6 S | 183 56.9 69.1 39.6
7/7/24 - 1600 68.2 - 27 32.8 50.0 21.9 S | 185 37.9 S | 184 56.9 69.1 37.9
7/7/24 - 1500 68.1 - 26 32.0 49.7 17.8 S | 182 33.4 SSW | 192 56.9 69.0 33.8
7/7/24 - 1400 67.2 - 26 31.0 49.1 17.0 S | 186 33.2 S | 187 56.9 68.3 33.8
7/7/24 - 1300 65.8 - 28 32.0 48.9 16.7 S | 185 33.8 S | 190 56.9 67.0 33.8
7/7/24 - 1200 65.2 - 28 31.3 48.4 13.8 S | 190 22.5 SSW | 193 56.9 66.0 22.6
7/7/24 - 1100 63.5 - 31 32.6 48.2 12.0 S | 186 22.6 SSW | 193 56.9 65.2 22.6
7/7/24 - 1000 63.4 - 33 33.9 48.6 6.4 SSW | 194 17.0 S | 189 56.9 65.2 17.0
7/7/24 - 0900 64.7 - 29 31.7 48.4 1.0 S | 190 4.8 SSW | 196 56.9 65.2 10.6
7/7/24 - 0800 62.4 - 30 30.7 47.2 0.5 SW | 235 2.4 NNW | 340 56.9 64.0 10.6
7/7/24 - 0700 59.2 - 33 30.2 45.7 0.4 W | 261 0.9 SE | 139 56.9 61.6 10.6
7/7/24 - 0600 58.2 - 34 29.8 45.1 0.4 W | 278 0.5 W | 262 56.9 60.0 10.6
7/7/24 - 0500 59.2 - 31 28.8 45.2 5.2 ESE | 102 10.6 ESE | 108 58.7 60.0 10.6
7/7/24 - 0400 59.1 - 32 29.2 45.3 6.9 ESE | 119 10.0 ESE | 107 58.7 60.0 10.0
7/7/24 - 0300 59.5 - 32 29.9 45.7 4.5 SE | 127 8.1 E | 95 59.2 60.0 8.1
7/7/24 - 0200 59.8 - 32 30.3 46.0 3.6 SSE | 163 6.2 SE | 145 59.2 60.0 6.2
7/7/24 - 0100 59.7 - 35 32.3 46.6 3.5 S | 172 6.9 SSE | 162 55.6 69.8 44.4
7/7/24 - 0000 59.9 - 37 33.3 47.1 2.3 S | 171 6.0 S | 186 55.6 69.8 44.4
7/6/24 - 2300 58.5 - 46 37.5 48.1 7.3 S | 187 14.0 SSW | 207 55.6 69.8 44.4
7/6/24 - 2200 58.3 - 48 38.6 48.5 17.3 SSW | 196 26.4 SSW | 194 55.6 69.8 44.4
7/6/24 - 2100 59.1 - 43 36.6 48.0 27.5 S | 187 36.0 S | 186 55.6 69.8 44.4
7/6/24 - 2000 62.1 - 37 35.8 48.9 30.1 S | 182 38.3 S | 186 55.6 69.8 44.4
7/6/24 - 1900 64.2 - 33 34.9 49.3 29.2 S | 181 38.3 SSW | 192 55.6 69.8 44.4
7/6/24 - 1800 65.5 - 32 34.9 49.8 31.8 S | 183 44.4 S | 173 55.6 69.8 44.4
7/6/24 - 1700 67.3 - 29 33.6 50.0 29.5 S | 184 40.3 S | 181 55.6 69.8 40.3
7/6/24 - 1600 68.5 - 24 30.6 49.5 24.6 S | 184 40.0 S | 181 55.6 69.8 40.0
7/6/24 - 1500 68.8 - 18 24.2 47.8 17.4 S | 188 36.5 S | 188 55.6 69.8 36.5
7/6/24 - 1400 67.6 - 18 22.1 46.8 11.5 S | 189 26.7 S | 187 55.6 69.1 33.2
7/6/24 - 1300 66.8 - 18 22.3 46.6 9.5 SSW | 199 23.8 SSW | 212 55.6 68.4 33.2
7/6/24 - 1200 64.2 - 20 22.4 45.5 6.7 SSW | 208 21.0 SSW | 202 55.6 65.8 33.2
7/6/24 - 1100 61.5 - 22 22.3 44.4 9.4 W | 259 22.0 NNW | 343 55.6 62.8 33.2
7/6/24 - 1000 60.6 - 21 20.4 43.6 14.0 WNW | 300 22.9 NW | 323 55.6 61.9 33.2
7/6/24 - 0900 60.6 - 20 19.6 43.4 16.2 NW | 325 24.0 NNW | 334 55.6 61.9 33.2
7/6/24 - 0800 58.4 - 21 18.4 42.2 18.3 NNW | 340 23.2 NNW | 339 55.6 59.2 33.2
7/6/24 - 0700 56.9 - 20 16.5 41.0 21.2 NNW | 340 23.5 NNW | 341 55.6 57.8 33.2
7/6/24 - 0600 55.9 - 20 15.1 40.3 23.1 NNW | 344 24.8 NNW | 341 55.6 57.8 33.2
7/6/24 - 0500 56.3 - 19 15.0 40.5 24.7 NNW | 345 27.1 NNW | 347 56.0 57.8 33.2
7/6/24 - 0400 56.5 - 19 15.2 40.6 27.1 NW | 322 30.9 NNW | 348 56.2 57.8 33.2
7/6/24 - 0300 56.7 - 19 15.3 40.7 28.3 WNW | 293 31.3 N | 349 56.4 57.8 33.2
7/6/24 - 0200 57.2 - 19 15.7 41.0 28.4 SSW | 213 33.2 N | 349 56.5 57.8 33.2
7/6/24 - 0100 57.7 - 20 16.9 41.5 29.4 ESE | 106 33.1 ENE | 77 54.3 67.9 38.7
7/6/24 - 0000 57.9 - 21 18.0 41.8 27.2 ESE | 114 33.0 ENE | 73 54.3 67.9 38.7
7/5/24 - 2300 58.7 - 25 23.1 43.4 22.3 E | 99 29.8 ENE | 75 54.3 67.9 38.7
7/5/24 - 2200 60.3 - 27 26.2 44.9 14.2 ESE | 119 22.7 ENE | 78 54.3 67.9 38.7
7/5/24 - 2100 61.0 - 40 35.9 48.6 8.9 SSE | 164 26.5 SE | 128 54.3 67.9 38.7
7/5/24 - 2000 62.1 - 44 40.0 50.6 15.2 S | 189 25.9 SSW | 199 54.3 67.9 38.7
7/5/24 - 1900 63.7 - 40 38.9 50.7 19.9 S | 183 28.6 S | 186 54.3 67.9 38.7
7/5/24 - 1800 64.2 - 41 39.9 51.4 22.7 S | 181 32.6 S | 176 54.3 67.9 38.7
7/5/24 - 1700 65.4 - 37 38.7 51.2 23.2 S | 182 38.7 SSW | 200 54.3 67.9 38.7
7/5/24 - 1600 67.1 - 27 32.0 49.4 20.9 S | 185 34.1 SSW | 192 54.3 67.9 34.1
7/5/24 - 1500 65.9 - 22 26.5 47.3 11.9 S | 184 34.0 SSW | 196 54.3 67.6 34.0
7/5/24 - 1400 64.3 - 22 24.5 46.1 4.2 S | 182 18.9 SE | 134 54.3 66.5 29.8
7/5/24 - 1300 63.7 - 23 25.1 46.1 2.6 SSW | 197 15.1 SSW | 192 54.3 66.5 29.8
7/5/24 - 1200 63.1 - 23 25.0 45.8 8.4 W | 265 17.2 NNW | 346 54.3 66.5 29.8
7/5/24 - 1100 60.0 - 24 23.2 44.0 12.7 W | 260 22.4 N | 349 54.3 60.9 29.8
7/5/24 - 1000 58.6 - 22 20.2 42.6 15.7 W | 281 23.2 NNW | 342 54.3 59.3 29.8
7/5/24 - 0900 57.5 - 20 17.1 41.5 14.2 NNW | 331 19.2 N | 350 54.3 58.6 29.8
7/5/24 - 0800 56.4 - 19 14.8 40.5 14.5 NNW | 344 18.6 NNW | 345 54.3 57.1 29.8
7/5/24 - 0700 55.2 - 19 13.2 39.6 16.9 NNW | 346 19.9 NNW | 345 54.3 55.8 29.8
7/5/24 - 0600 54.7 - 18 12.6 39.2 20.5 NNW | 344 22.6 NNW | 347 54.3 55.4 29.8
7/5/24 - 0500 55.0 - 20 14.2 39.7 21.5 NNW | 346 23.5 NNW | 344 54.3 55.4 29.8
7/5/24 - 0400 54.8 - 22 17.1 40.2 22.8 NNW | 346 26.0 NNW | 343 54.3 55.2 29.8
7/5/24 - 0300 54.5 - 26 20.7 40.9 24.9 NNW | 338 27.7 E | 85 54.3 55.2 29.8
7/5/24 - 0200 54.6 - 30 24.2 41.8 26.9 WNW | 288 29.8 E | 86 54.3 55.2 29.8
7/5/24 - 0100 55.6 - 26 21.1 41.5 28.0 S | 183 31.8 ENE | 74 50.0 65.7 39.7
7/5/24 - 0000 56.4 - 27 22.8 42.3 24.0 SSW | 206 29.3 ENE | 75 50.0 65.7 39.7
7/4/24 - 2300 57.6 - 32 27.7 44.2 17.4 E | 96 23.6 E | 82 50.0 65.7 39.7
7/4/24 - 2200 58.4 - 36 31.0 45.7 12.1 ESE | 112 22.8 E | 96 50.0 65.7 39.7
7/4/24 - 2100 57.5 - 52 40.2 48.9 11.9 S | 188 21.1 S | 189 50.0 65.7 39.7
7/4/24 - 2000 58.8 - 50 40.5 49.5 24.2 S | 186 33.3 S | 189 50.0 65.7 39.7
7/4/24 - 1900 60.7 - 44 38.7 49.5 27.0 S | 184 34.8 S | 183 50.0 65.7 39.7
7/4/24 - 1800 62.6 - 38 36.8 49.4 28.3 S | 182 38.2 S | 185 50.0 65.7 39.7
7/4/24 - 1700 63.9 - 37 37.3 50.1 27.5 S | 181 38.4 S | 176 50.0 65.7 39.7
7/4/24 - 1600 64.5 - 32 34.4 49.2 26.0 S | 181 39.7 S | 188 50.0 65.7 39.7
7/4/24 - 1500 64.7 - 30 32.8 48.8 22.7 S | 182 34.6 S | 187 50.0 65.7 37.6
7/4/24 - 1400 64.4 - 31 32.9 48.7 21.4 S | 184 37.6 S | 176 50.0 65.3 37.6
7/4/24 - 1300 64.0 - 30 31.8 48.1 18.6 S | 184 31.8 SSW | 203 50.0 65.3 31.8
7/4/24 - 1200 62.7 - 35 34.9 48.7 13.7 S | 185 29.8 SSW | 193 50.0 63.9 29.8
7/4/24 - 1100 61.3 - 36 34.0 47.9 5.0 SSW | 193 14.4 S | 177 50.0 63.0 19.5
7/4/24 - 1000 58.5 - 37 32.6 46.2 2.5 SW | 233 10.2 NW | 320 50.0 59.7 19.5
7/4/24 - 0900 56.4 - 41 32.7 45.4 3.6 W | 276 10.5 N | 350 50.0 57.9 19.5
7/4/24 - 0800 55.8 - 46 35.1 46.0 2.2 NW | 314 6.4 NW | 320 50.0 57.2 19.5
7/4/24 - 0700 53.7 - 47 34.2 44.7 2.7 SSW | 198 7.2 SSW | 194 50.0 56.4 19.5
7/4/24 - 0600 50.3 - 62 37.9 44.6 7.6 SSW | 202 11.4 SSW | 210 50.0 52.6 19.5
7/4/24 - 0500 50.6 - 66 39.5 45.5 11.8 SSW | 196 16.6 SSW | 194 50.1 52.6 19.5
7/4/24 - 0400 50.6 - 66 39.8 45.7 13.8 S | 189 18.1 S | 189 50.3 52.6 19.5
7/4/24 - 0300 50.9 - 67 40.5 46.1 15.2 S | 189 19.5 S | 184 50.4 52.6 19.5
7/4/24 - 0200 51.6 - 66 40.6 46.4 14.0 S | 191 17.3 S | 190 50.8 52.6 17.3
7/4/24 - 0100 52.6 - 65 41.1 47.2 8.6 SSW | 199 11.8 S | 190 50.7 63.5 40.3
7/4/24 - 0000 53.5 - 64 41.5 47.8 7.8 SSW | 199 10.6 SSW | 200 50.7 63.5 40.3
7/3/24 - 2300 54.8 - 62 41.9 48.5 3.2 SSW | 200 9.8 SSW | 209 50.7 63.5 40.3
7/3/24 - 2200 55.0 - 61 41.9 48.6 9.1 SSW | 196 14.7 SSW | 196 50.7 63.5 40.3
7/3/24 - 2100 56.9 - 57 42.0 49.4 15.4 SSW | 195 19.2 SSW | 195 50.7 63.5 40.3
7/3/24 - 2000 58.6 - 55 42.6 50.4 21.6 S | 190 30.0 SSW | 194 50.7 63.5 40.3
7/3/24 - 1900 59.4 - 54 42.7 50.8 27.2 S | 184 36.0 S | 189 50.7 63.5 40.3
7/3/24 - 1800 60.9 - 50 42.3 51.2 28.3 S | 184 36.5 S | 174 50.7 63.5 40.3
7/3/24 - 1700 62.1 - 45 40.5 50.8 26.2 S | 183 38.0 SSE | 164 50.7 63.5 40.3
7/3/24 - 1600 62.4 - 38 36.7 49.3 27.0 S | 187 39.7 SSW | 201 50.7 63.5 40.3
7/3/24 - 1500 61.8 - 37 35.5 48.6 27.6 S | 185 39.2 S | 189 50.7 62.8 40.3
7/3/24 - 1400 61.5 - 36 34.4 48.1 28.6 S | 185 40.3 S | 189 50.7 62.8 40.3
7/3/24 - 1300 62.1 - 32 32.0 47.5 24.5 S | 186 38.4 S | 177 50.7 62.8 38.4
7/3/24 - 1200 61.0 - 32 30.9 46.7 21.0 S | 182 34.0 S | 180 50.7 61.8 34.0
7/3/24 - 1100 59.2 - 33 30.2 45.7 23.0 S | 184 34.0 S | 179 50.7 60.3 34.0
7/3/24 - 1000 57.6 - 35 30.5 45.1 21.3 S | 187 26.9 SSW | 194 50.7 59.2 26.9
7/3/24 - 0900 57.4 - 32 27.8 44.1 17.4 SSW | 192 22.9 SSW | 192 50.7 58.6 25.3
7/3/24 - 0800 56.5 - 28 23.8 42.6 7.0 SSW | 202 13.7 SSW | 193 50.7 58.2 25.3
7/3/24 - 0700 52.0 - 26 18.0 39.0 7.1 NNW | 347 12.1 N | 350 50.7 53.3 25.3
7/3/24 - 0600 51.1 - 27 18.6 38.7 13.8 NNW | 348 16.3 NNW | 348 50.7 52.6 25.3
7/3/24 - 0500 51.1 - 28 19.0 38.8 13.7 NW | 304 15.7 NNW | 343 50.7 52.6 25.3
7/3/24 - 0400 51.3 - 28 19.3 39.0 16.3 WSW | 251 21.6 ENE | 76 51.0 52.6 25.3
7/3/24 - 0300 51.6 - 28 19.7 39.2 19.8 E | 97 23.0 ENE | 78 51.4 52.6 25.3
7/3/24 - 0200 52.3 - 31 22.3 40.2 20.9 ESE | 105 25.3 E | 92 51.7 52.6 25.3
7/3/24 - 0100 52.6 - 32 23.9 40.8 23.3 E | 100 30.6 E | 90 43.9 61.2 39.2
7/3/24 - 0000 53.2 - 30 22.7 40.7 28.4 ESE | 104 34.2 E | 79 43.9 61.2 39.2
7/2/24 - 2300 54.4 - 32 25.5 42.1 24.0 E | 93 33.6 E | 79 43.9 61.2 39.2
7/2/24 - 2200 55.4 - 39 31.0 44.3 19.0 E | 100 28.3 E | 80 43.9 61.2 39.2
7/2/24 - 2100 55.3 - 54 39.0 47.4 10.2 S | 173 19.8 E | 88 43.9 61.2 39.2
7/2/24 - 2000 57.3 - 54 40.6 49.0 19.0 SSW | 192 25.8 S | 186 43.9 61.2 39.2
7/2/24 - 1900 58.2 - 52 40.7 49.4 23.6 S | 187 32.0 S | 191 43.9 61.2 39.2
7/2/24 - 1800 58.9 - 50 40.6 49.6 24.9 S | 185 38.2 S | 183 43.9 61.2 39.2
7/2/24 - 1700 60.0 - 46 39.3 49.5 24.8 S | 184 36.7 S | 188 43.9 61.2 39.2
7/2/24 - 1600 60.3 - 45 38.8 49.4 26.3 S | 185 38.3 S | 181 43.9 61.2 39.2
7/2/24 - 1500 59.9 - 44 38.1 48.9 23.0 S | 184 35.0 S | 174 43.9 61.1 39.2
7/2/24 - 1400 59.7 - 41 35.9 47.9 18.2 S | 184 31.1 S | 175 43.9 61.1 39.2
7/2/24 - 1300 59.6 - 39 34.6 47.4 11.6 SSW | 192 25.5 S | 184 43.9 61.1 39.2
7/2/24 - 1200 57.4 - 39 32.8 45.8 6.7 SSW | 196 17.1 S | 184 43.9 59.0 39.2
7/2/24 - 1100 54.3 - 40 30.7 43.7 2.0 WSW | 251 10.7 S | 186 43.9 55.6 39.2
7/2/24 - 1000 51.6 - 40 28.1 41.6 5.8 NW | 314 10.8 NW | 326 43.9 52.5 39.2
7/2/24 - 0900 49.6 46.8 40 26.0 39.9 6.7 NW | 326 12.2 NNW | 338 43.9 52.2 39.2
7/2/24 - 0800 47.5 42.7 39 24.0 38.2 10.6 NW | 326 16.5 NW | 326 43.9 48.2 39.2
7/2/24 - 0700 46.3 39.5 40 23.5 37.5 16.8 NNW | 344 23.8 NNW | 348 43.9 47.0 39.2
7/2/24 - 0600 44.7 35.8 43 23.8 36.6 24.4 NW | 326 30.2 NW | 319 43.9 46.8 39.2
7/2/24 - 0500 44.8 35.1 43 23.6 36.6 28.7 SSW | 206 31.8 ENE | 74 43.9 46.8 39.2
7/2/24 - 0400 46.0 36.7 42 24.1 37.4 29.2 NNW | 348 33.3 N | 350 45.8 46.8 39.2
7/2/24 - 0300 46.1 36.5 43 25.0 37.8 31.9 NNW | 330 36.2 ENE | 72 45.8 46.8 39.2
7/2/24 - 0200 46.4 36.6 45 26.3 38.3 33.4 SW | 222 39.2 ENE | 72 46.0 46.8 39.2
7/2/24 - 0100 46.6 37.3 47 27.4 38.8 31.4 SSW | 206 36.2 ENE | 76 41.7 58.4 52.2
7/2/24 - 0000 47.8 37.8 44 26.8 39.2 39.4 SE | 135 48.7 E | 84 41.7 58.4 52.2
7/1/24 - 2300 49.4 40.0 45 29.1 40.8 40.6 SE | 140 52.2 ENE | 71 41.7 58.4 52.2
7/1/24 - 2200 51.1 - 50 33.1 43.0 32.7 S | 171 42.8 ENE | 76 41.7 58.4 42.8
7/1/24 - 2100 53.3 - 52 36.2 45.3 27.8 ESE | 123 39.6 N | 349 41.7 58.4 39.6
7/1/24 - 2000 56.2 - 55 40.0 48.2 10.8 SE | 127 27.0 E | 90 41.7 58.4 38.3
7/1/24 - 1900 55.9 - 61 42.5 49.3 14.0 SSW | 198 23.0 SSW | 198 41.7 58.4 38.3
7/1/24 - 1800 57.3 - 53 40.4 48.9 18.6 SSW | 199 27.3 SSW | 193 41.7 58.4 38.3
7/1/24 - 1700 57.1 - 48 37.5 47.6 22.6 SSW | 192 33.7 S | 191 41.7 58.2 38.3
7/1/24 - 1600 56.3 - 41 32.8 45.3 25.1 S | 188 38.3 S | 180 41.7 57.4 38.3
7/1/24 - 1500 56.0 - 39 31.4 44.7 26.3 S | 185 37.9 SSW | 195 41.7 56.5 37.9
7/1/24 - 1400 55.9 - 39 31.5 44.7 23.4 S | 184 36.4 S | 188 41.7 56.5 36.4
7/1/24 - 1300 55.2 - 44 33.6 45.1 17.6 S | 181 26.8 S | 186 41.7 56.2 31.6
7/1/24 - 1200 55.0 - 42 32.1 44.5 13.9 S | 188 23.2 SSW | 200 41.7 56.1 31.6
7/1/24 - 1100 53.6 - 50 35.4 45.1 6.4 SSW | 198 14.3 SSW | 192 41.7 55.3 31.6
7/1/24 - 1000 52.6 - 51 35.0 44.5 2.7 SW | 221 11.2 SSW | 204 41.7 53.5 31.6
7/1/24 - 0900 47.6 - 45 20.9 40.0 0.4 SSW | 200 0.4 SSW | 200 41.7 51.6 31.6
7/1/24 - 0800 45.6 42.2 66 35.0 41.0 6.3 NNW | 327 10.7 NNW | 341 41.7 46.6 31.6
7/1/24 - 0700 43.4 36.4 70 34.2 39.5 14.3 NNW | 345 17.8 N | 350 41.7 45.7 31.6
7/1/24 - 0600 42.0 33.5 76 34.9 39.0 18.3 NW | 306 21.1 N | 350 41.7 45.7 31.6
7/1/24 - 0500 42.3 32.7 75 35.0 39.2 23.5 ESE | 108 29.7 SSW | 204 41.8 45.7 31.6
7/1/24 - 0400 42.7 32.9 75 35.2 39.5 25.2 SE | 128 30.6 ENE | 76 42.3 45.7 31.6
7/1/24 - 0300 43.8 34.8 73 35.8 40.4 23.4 WSW | 238 30.0 NNW | 348 43.2 45.7 31.6
7/1/24 - 0200 45.1 35.9 68 35.2 40.8 26.7 S | 188 31.6 ENE | 71 44.3 45.7 31.6
7/1/24 - 0100 46.0 36.8 64 34.7 41.1 28.3 ESE | 119 33.3 ENE | 76 40.3 53.6 43.0
7/1/24 - 0000 46.9 38.7 61 34.1 41.3 24.6 ESE | 117 31.1 E | 80 40.3 53.6 43.0
6/30/24 - 2300 48.8 43.8 53 32.1 41.6 12.2 SSE | 150 27.0 NNW | 345 40.3 53.6 43.0
6/30/24 - 2200 47.2 41.3 63 35.1 41.9 14.2 SSW | 201 20.1 SSW | 199 40.3 53.6 43.0
6/30/24 - 2100 47.2 39.8 66 36.3 42.4 21.1 SSW | 198 30.2 SSW | 194 40.3 53.6 43.0
6/30/24 - 2000 49.5 42.2 59 35.7 43.3 24.3 SSW | 192 29.9 SSW | 196 40.3 53.6 43.0
6/30/24 - 1900 50.9 - 54 34.7 43.5 24.1 S | 178 34.5 S | 175 40.3 53.6 43.0
6/30/24 - 1800 52.0 - 48 33.0 43.5 23.1 S | 181 34.9 S | 181 40.3 53.6 43.0
6/30/24 - 1700 52.7 - 45 32.0 43.4 27.7 S | 181 38.3 S | 191 40.3 53.6 43.0
6/30/24 - 1600 52.6 - 45 32.1 43.4 30.5 S | 183 42.7 SSW | 195 40.3 53.3 43.0
6/30/24 - 1500 52.6 - 49 34.1 44.1 29.6 S | 182 43.0 S | 171 40.3 53.3 43.0
6/30/24 - 1400 52.5 - 49 34.2 44.1 25.9 S | 181 41.4 S | 174 40.3 53.2 41.4
6/30/24 - 1300 51.8 - 44 30.6 42.5 25.4 S | 182 40.4 SSW | 199 40.3 52.7 40.4
6/30/24 - 1200 50.2 - 42 28.1 40.8 27.7 S | 187 37.5 SSW | 196 40.3 51.3 38.4
6/30/24 - 1100 49.0 41.5 44 28.2 40.3 24.6 S | 186 34.0 S | 185 40.3 49.6 38.4
6/30/24 - 1000 47.4 39.7 50 29.9 40.0 22.5 S | 188 27.4 S | 185 40.3 48.6 38.4
6/30/24 - 0900 45.6 37.4 51 28.7 38.7 22.6 SSW | 194 27.0 SSW | 198 40.3 47.5 38.4
6/30/24 - 0800 43.6 34.6 64 32.3 38.9 22.8 S | 189 25.2 SSW | 196 40.3 44.9 38.4
6/30/24 - 0700 41.9 32.0 69 32.4 38.0 24.9 SSW | 195 28.6 SSW | 199 40.3 43.1 38.4
6/30/24 - 0600 40.7 30.0 71 32.2 37.2 27.0 SSW | 197 30.9 SSW | 198 40.3 42.9 38.4
6/30/24 - 0500 40.8 29.7 72 32.6 37.4 29.1 SSW | 198 35.4 SSW | 194 40.5 42.9 38.4
6/30/24 - 0400 41.7 30.3 68 32.0 37.7 32.4 SSW | 202 35.1 SSW | 194 41.1 42.9 38.4
6/30/24 - 0300 42.3 31.1 66 31.8 38.0 32.9 SSW | 200 38.4 SSW | 198 41.7 42.9 38.4
6/30/24 - 0200 42.1 31.0 70 33.0 38.3 31.8 SSW | 200 36.9 SSW | 194 41.8 42.3 36.9
6/30/24 - 0100 42.6 31.4 70 33.5 38.8 34.0 SSW | 196 36.6 SSW | 194 41.9 56.0 40.5
6/30/24 - 0000 42.5 32.0 72 34.0 39.0 29.6 SSW | 193 33.2 SSW | 196 41.9 56.0 40.5
6/29/24 - 2300 42.3 31.5 75 34.8 39.2 30.8 S | 188 33.7 S | 186 41.9 56.0 40.5
6/29/24 - 2200 43.1 32.8 74 35.3 39.8 29.6 S | 190 34.3 S | 191 42.3 56.0 40.5
6/29/24 - 2100 45.3 35.3 68 35.3 41.0 32.0 S | 187 37.3 S | 190 43.6 56.0 40.5
6/29/24 - 2000 48.8 40.1 57 34.2 42.3 31.7 S | 183 38.8 S | 188 46.8 56.0 40.5
6/29/24 - 1900 52.1 - 48 33.0 43.5 23.0 S | 180 34.6 SSW | 195 47.7 56.0 40.5
6/29/24 - 1800 53.8 - 43 32.0 43.9 19.7 S | 179 33.7 SE | 139 47.7 56.0 40.5
6/29/24 - 1700 54.9 - 39 30.2 43.8 23.0 S | 180 35.8 S | 177 47.7 56.0 40.5
6/29/24 - 1600 55.2 - 36 28.5 43.4 25.8 S | 180 40.5 SSW | 193 47.7 56.0 40.5
6/29/24 - 1500 54.7 - 35 27.9 43.0 24.8 S | 182 38.8 S | 179 47.7 56.0 40.4
6/29/24 - 1400 53.4 - 36 27.2 42.1 27.5 S | 183 40.4 S | 187 47.7 55.8 40.4
6/29/24 - 1300 52.5 - 42 30.1 42.6 27.6 S | 188 37.3 SSW | 194 47.7 55.8 37.3
6/29/24 - 1200 52.0 - 44 30.8 42.6 21.8 S | 187 35.9 S | 180 47.7 55.8 35.9
6/29/24 - 1100 52.1 - 45 31.5 42.9 19.7 SSW | 195 26.5 S | 183 47.7 55.8 26.5
6/29/24 - 1000 52.4 - 44 31.1 42.9 15.1 SSW | 198 20.4 SSW | 203 47.7 55.8 20.4
6/29/24 - 0900 53.9 - 37 28.0 42.6 9.7 SSW | 204 15.0 SSW | 208 47.7 55.8 15.0
6/29/24 - 0800 54.2 - 37 28.3 42.9 0.7 WSW | 241 4.7 SSW | 205 47.7 55.8 5.2
6/29/24 - 0700 51.3 - 39 27.1 41.0 0.4 W | 266 0.4 NW | 311 47.7 53.0 5.2
6/29/24 - 0600 49.1 - 39 25.2 39.4 0.4 W | 268 0.4 NNW | 337 47.7 51.5 5.2
6/29/24 - 0500 48.2 - 40 25.2 38.9 2.2 SSW | 195 5.2 SSW | 198 47.7 51.5 5.2
6/29/24 - 0400 48.4 - 51 31.1 41.0 0.6 S | 182 3.1 S | 178 48.2 51.5 4.3
6/29/24 - 0300 50.7 - 43 28.9 41.4 0.9 SE | 146 3.5 E | 95 48.8 51.5 4.3
6/29/24 - 0200 51.2 - 40 27.5 41.1 1.0 ESE | 102 4.3 E | 90 50.8 51.5 4.3
6/29/24 - 0100 51.1 - 41 28.3 41.4 2.4 SE | 125 7.5 E | 94 45.0 56.8 38.8
6/29/24 - 0000 49.8 - 40 26.5 40.2 2.5 SSE | 168 6.0 S | 183 45.0 56.8 38.8
6/28/24 - 2300 48.9 44.1 44 28.1 40.2 11.8 SSW | 201 18.0 SSW | 204 45.0 56.8 38.8
6/28/24 - 2200 48.8 42.3 48 30.1 40.8 19.0 SSW | 200 24.0 SSW | 195 45.0 56.8 38.8
6/28/24 - 2100 49.4 42.4 51 32.0 41.8 23.0 SSW | 192 26.9 S | 191 45.0 56.8 38.8
6/28/24 - 2000 50.9 - 49 32.3 42.6 24.5 S | 190 32.0 S | 186 45.0 56.8 38.8
6/28/24 - 1900 52.3 - 44 30.9 42.8 30.4 S | 187 37.3 S | 180 45.0 56.8 38.8
6/28/24 - 1800 53.6 - 41 30.4 43.3 26.8 S | 184 38.8 S | 188 45.0 56.8 38.8
6/28/24 - 1700 55.1 - 36 28.6 43.4 26.3 S | 183 36.5 S | 190 45.0 56.8 36.5
6/28/24 - 1600 56.0 - 36 29.2 44.0 22.8 S | 179 36.5 S | 189 45.0 56.8 36.5
6/28/24 - 1500 56.2 - 34 28.2 43.7 21.9 S | 180 36.4 S | 177 45.0 56.8 36.4
6/28/24 - 1400 55.2 - 35 28.2 43.3 22.5 S | 186 34.6 S | 191 45.0 56.5 34.6
6/28/24 - 1300 55.2 - 33 26.5 42.8 18.5 S | 183 30.3 S | 190 45.0 56.3 30.3
6/28/24 - 1200 54.1 - 34 26.4 42.2 17.3 S | 186 27.1 S | 184 45.0 55.2 27.1
6/28/24 - 1100 53.4 - 31 23.7 41.1 14.7 S | 191 21.2 S | 189 45.0 54.0 24.8
6/28/24 - 1000 52.6 - 23 15.8 38.8 14.2 SSW | 199 18.8 SSW | 196 45.0 53.2 24.8
6/28/24 - 0900 49.9 44.0 24 14.1 37.1 17.2 SSW | 199 20.2 SSW | 198 45.0 53.0 24.8
6/28/24 - 0800 50.1 - 24 15.1 37.4 19.0 SSW | 196 21.3 SSW | 197 45.0 51.3 24.8
6/28/24 - 0700 48.1 40.8 29 17.1 36.8 21.3 SSW | 197 23.1 SSW | 198 45.0 49.3 24.8
6/28/24 - 0600 45.7 37.5 27 13.3 34.7 22.1 SSW | 198 23.9 SSW | 200 45.0 46.8 24.8
6/28/24 - 0500 45.9 38.2 29 15.3 35.2 20.1 SSW | 195 23.2 SSW | 196 45.0 46.8 24.8
6/28/24 - 0400 45.5 37.6 34 18.9 35.8 20.6 SSW | 194 22.7 SSW | 193 45.0 46.8 24.8
6/28/24 - 0300 45.6 37.4 47 26.6 38.0 22.0 SSW | 193 24.3 SSW | 193 45.0 46.8 24.8
6/28/24 - 0200 45.7 37.6 51 28.6 38.7 22.0 SSW | 193 24.8 SSW | 196 45.0 46.8 24.8
6/28/24 - 0100 44.8 35.8 51 27.9 38.0 25.1 SSW | 192 27.4 SSW | 192 39.9 52.9 53.3
6/28/24 - 0000 46.1 37.5 45 25.7 38.0 25.0 SSW | 195 27.8 SSW | 195 39.9 52.9 53.3
6/27/24 - 2300 48.1 40.4 43 26.4 39.2 23.7 SSW | 201 26.3 SSW | 202 39.9 52.9 53.3
6/27/24 - 2200 45.3 36.5 59 31.5 39.5 24.9 SSW | 202 27.1 SSW | 198 39.9 52.9 53.3
6/27/24 - 2100 44.5 34.8 65 33.4 39.8 29.0 SSW | 193 33.3 S | 191 39.9 52.9 53.3
6/27/24 - 2000 47.4 38.6 57 32.8 41.1 29.0 S | 181 35.7 S | 180 39.9 52.9 53.3
6/27/24 - 1900 49.6 41.3 53 33.0 42.2 31.5 S | 182 38.3 S | 186 39.9 52.9 53.3
6/27/24 - 1800 51.2 - 50 33.1 43.1 29.0 S | 179 39.8 S | 175 39.9 52.9 53.3
6/27/24 - 1700 52.0 - 49 33.2 43.5 29.6 S | 181 42.1 S | 186 39.9 52.9 53.3
6/27/24 - 1600 52.4 - 47 32.7 43.5 29.4 S | 182 43.5 S | 189 39.9 52.9 53.3
6/27/24 - 1500 52.2 - 46 32.3 43.2 29.4 S | 181 42.6 S | 177 39.9 52.8 53.3
6/27/24 - 1400 51.8 - 44 30.8 42.5 30.4 S | 186 47.5 S | 182 39.9 52.5 53.3
6/27/24 - 1300 51.0 - 47 31.4 42.3 26.5 S | 180 43.3 S | 185 39.9 51.9 53.3
6/27/24 - 1200 49.8 41.4 52 33.1 42.4 32.8 S | 180 49.2 S | 191 39.9 50.5 53.3
6/27/24 - 1100 47.6 37.2 62 35.2 42.1 42.4 S | 184 52.9 S | 181 39.9 49.4 53.3
6/27/24 - 1000 44.9 33.6 82 39.8 42.8 42.1 S | 184 50.1 S | 186 39.9 46.7 53.3
6/27/24 - 0900 42.4 30.3 98 41.9 42.5 40.1 S | 184 47.7 SSW | 194 39.9 43.6 53.3
6/27/24 - 0800 41.4 28.3 100 41.5 41.7 45.4 S | 185 52.8 S | 188 39.9 42.3 53.3
6/27/24 - 0700 40.5 26.6 100 40.5 40.8 48.2 S | 185 53.3 S | 188 39.9 42.3 53.3
6/27/24 - 0600 40.3 27.0 99 40.0 40.4 42.6 S | 185 49.0 S | 188 39.9 42.3 49.0
6/27/24 - 0500 40.8 28.7 97 40.2 40.8 35.6 S | 183 42.2 S | 178 40.3 42.3 44.2
6/27/24 - 0400 41.1 28.7 95 39.8 40.7 38.4 S | 182 44.2 S | 180 40.6 42.3 44.2
6/27/24 - 0300 41.7 29.6 90 39.0 40.7 37.6 S | 182 43.2 S | 184 41.2 42.3 43.2
6/27/24 - 0200 41.9 30.0 91 39.5 41.1 37.6 S | 184 42.6 S | 184 41.6 42.3 42.6
6/27/24 - 0100 41.9 29.7 91 39.4 41.0 39.0 S | 184 45.4 S | 189 41.4 57.0 46.3
6/27/24 - 0000 42.0 30.0 87 38.4 40.6 37.7 S | 185 44.6 S | 189 41.6 57.0 46.3
6/26/24 - 2300 43.0 31.6 82 37.9 40.9 36.9 S | 186 43.5 S | 189 42.1 57.0 46.3
6/26/24 - 2200 44.0 33.0 78 37.6 41.3 36.2 S | 184 41.7 S | 189 43.2 57.0 46.3
6/26/24 - 2100 45.9 35.4 72 37.4 42.2 38.2 S | 184 46.2 S | 185 44.0 57.0 46.3
6/26/24 - 2000 49.1 39.9 65 37.9 44.0 37.8 S | 181 44.8 S | 190 44.0 57.0 46.3
6/26/24 - 1900 51.6 - 64 39.8 46.1 36.3 S | 181 46.3 S | 186 44.0 57.0 46.3
6/26/24 - 1800 53.6 - 64 41.7 47.9 35.3 S | 181 45.6 S | 188 44.0 57.0 45.6
6/26/24 - 1700 55.0 - 61 41.9 48.6 30.1 S | 180 44.9 S | 177 44.0 57.0 44.9
6/26/24 - 1600 55.7 - 61 42.3 49.1 27.6 S | 180 40.8 S | 184 44.0 57.0 41.9
6/26/24 - 1500 55.5 - 60 42.0 48.9 26.0 S | 182 38.7 S | 189 44.0 56.5 41.9
6/26/24 - 1400 55.0 - 59 41.1 48.2 27.6 S | 185 38.4 S | 188 44.0 56.1 41.9
6/26/24 - 1300 54.1 - 63 41.9 48.2 25.1 S | 185 39.3 S | 181 44.0 55.4 41.9
6/26/24 - 1200 52.6 - 68 42.2 47.7 23.3 S | 184 33.6 S | 181 44.0 54.1 41.9
6/26/24 - 1100 50.3 - 72 41.8 46.4 24.7 S | 185 31.1 S | 189 44.0 52.3 41.9
6/26/24 - 1000 48.0 39.5 79 41.9 45.4 29.2 S | 187 35.3 S | 170 44.0 48.8 41.9
6/26/24 - 0900 45.9 35.9 85 41.7 44.2 33.8 S | 189 37.9 SSW | 193 44.0 47.0 41.9
6/26/24 - 0800 44.8 34.1 88 41.4 43.5 36.7 S | 188 41.9 S | 187 44.0 45.2 41.9
6/26/24 - 0700 44.6 33.8 88 41.4 43.4 37.0 S | 187 40.6 S | 188 44.0 45.2 40.6
6/26/24 - 0600 44.3 33.6 91 41.8 43.4 34.5 S | 186 38.7 S | 186 44.0 45.2 38.7
6/26/24 - 0500 44.8 34.5 91 42.3 43.9 33.4 S | 186 38.6 S | 185 44.1 45.2 38.6
6/26/24 - 0400 44.3 33.7 94 42.6 43.9 34.3 S | 189 36.8 S | 189 44.1 45.1 36.8
6/26/24 - 0300 44.2 33.8 94 42.6 43.8 32.7 S | 188 36.2 S | 190 44.1 45.1 36.2
6/26/24 - 0200 44.6 34.5 86 40.7 43.0 31.2 S | 189 34.2 S | 191 44.2 45.1 34.2
6/26/24 - 0100 45.2 35.7 84 40.6 43.3 28.7 S | 190 30.0 S | 191 44.5 60.4 40.9
6/26/24 - 0000 46.2 37.5 81 40.8 43.9 25.7 SSW | 194 29.0 SSW | 192 45.6 60.4 40.9
6/25/24 - 2300 46.6 39.2 79 40.6 44.1 20.1 SSW | 192 23.1 SSW | 193 46.3 60.4 40.9
6/25/24 - 2200 47.6 40.8 77 40.9 44.7 18.4 SSW | 193 21.6 SSW | 195 46.3 60.4 40.9
6/25/24 - 2100 48.0 41.4 77 41.1 45.0 17.8 S | 187 20.7 S | 177 46.3 60.4 40.9
6/25/24 - 2000 50.3 - 74 42.5 46.8 18.9 S | 181 24.5 S | 174 46.3 60.4 40.9
6/25/24 - 1900 51.7 - 75 44.0 48.2 22.9 S | 184 31.2 S | 185 46.3 60.4 40.9
6/25/24 - 1800 54.3 - 74 46.2 50.5 27.0 S | 187 34.3 S | 190 46.3 60.4 40.9
6/25/24 - 1700 57.8 - 63 45.3 51.5 28.9 S | 183 40.9 S | 183 46.3 60.4 40.9
6/25/24 - 1600 59.3 - 55 43.3 51.1 24.2 S | 179 36.8 S | 180 46.3 60.4 37.7
6/25/24 - 1500 59.3 - 58 44.4 51.6 21.3 S | 181 37.7 SSW | 193 46.3 60.4 37.7
6/25/24 - 1400 57.9 - 60 44.0 50.9 20.9 S | 186 36.2 SSW | 196 46.3 59.0 36.2
6/25/24 - 1300 58.1 - 57 42.9 50.4 16.2 S | 188 27.4 SSW | 195 46.3 59.0 33.8
6/25/24 - 1200 57.3 - 61 43.9 50.6 11.4 S | 189 17.8 SSW | 192 46.3 58.9 33.8
6/25/24 - 1100 55.7 - 65 44.0 49.9 12.9 S | 191 18.9 S | 183 46.3 57.4 33.8
6/25/24 - 1000 53.4 - 69 43.5 48.7 17.0 S | 191 22.0 S | 188 46.3 54.9 33.8
6/25/24 - 0900 50.7 - 74 42.8 47.1 18.7 SSW | 193 22.6 SSW | 195 46.3 53.4 33.8
6/25/24 - 0800 48.3 41.2 80 42.3 45.7 20.6 S | 187 27.0 S | 186 46.3 49.7 33.8
6/25/24 - 0700 46.8 38.0 82 41.5 44.6 27.6 S | 187 32.0 SSW | 192 46.3 48.1 33.8
6/25/24 - 0600 47.0 38.3 81 41.5 44.7 28.3 S | 188 32.2 S | 187 46.3 48.1 33.8
6/25/24 - 0500 47.3 38.8 80 41.4 44.7 27.0 S | 186 30.5 S | 187 46.3 48.1 33.8
6/25/24 - 0400 46.7 37.4 79 40.7 44.1 30.8 S | 188 33.8 S | 188 46.3 47.6 33.8
6/25/24 - 0300 46.8 38.1 80 40.9 44.3 27.5 S | 187 31.0 S | 186 46.4 47.6 31.0
6/25/24 - 0200 46.9 38.5 80 41.0 44.4 25.5 S | 190 27.9 S | 190 46.5 47.2 27.9
6/25/24 - 0100 47.0 39.0 82 41.6 44.8 23.8 S | 191 27.0 S | 189 45.6 57.0 59.1
6/25/24 - 0000 47.8 40.7 81 42.1 45.4 20.0 SSW | 195 22.8 SSW | 194 45.6 57.0 59.1
6/24/24 - 2300 49.0 42.7 78 </